createdAt,value
2022-08-25T00:00:15.657Z,18.91
2022-08-25T00:02:48.484Z,18.88
2022-08-25T00:05:26.439Z,18.87
2022-08-25T00:07:55.557Z,18.79
2022-08-25T00:10:22.980Z,18.80
2022-08-25T00:12:50.338Z,18.83
2022-08-25T00:15:17.729Z,18.81
2022-08-25T00:17:45.474Z,18.85
2022-08-25T00:20:12.908Z,18.87
2022-08-25T00:22:40.679Z,18.91
2022-08-25T00:25:09.741Z,18.92
2022-08-25T00:27:37.419Z,18.91
2022-08-25T00:30:06.365Z,18.88
2022-08-25T00:32:33.786Z,18.76
2022-08-25T00:35:01.307Z,18.71
2022-08-25T00:37:28.742Z,18.82
2022-08-25T00:39:57.240Z,18.87
2022-08-25T00:42:25.649Z,18.83
2022-08-25T00:44:53.834Z,18.75
2022-08-25T00:47:20.890Z,18.63
2022-08-25T00:50:00.921Z,18.53
2022-08-25T00:52:54.002Z,18.48
2022-08-25T00:55:31.367Z,18.40
2022-08-25T00:58:19.207Z,18.33
2022-08-25T01:00:50.337Z,18.42
2022-08-25T01:03:19.804Z,18.45
2022-08-25T01:05:48.114Z,18.39
2022-08-25T01:08:18.420Z,18.34
2022-08-25T01:10:47.212Z,18.22
2022-08-25T01:13:24.541Z,18.13
2022-08-25T01:15:56.001Z,18.04
2022-08-25T01:18:24.337Z,17.83
2022-08-25T01:20:59.762Z,17.83
2022-08-25T01:23:27.530Z,17.86
2022-08-25T01:26:16.382Z,17.92
2022-08-25T01:29:05.497Z,17.95
2022-08-25T01:31:34.384Z,17.89
2022-08-25T01:34:01.608Z,17.90
2022-08-25T01:36:30.125Z,17.73
2022-08-25T01:38:57.763Z,17.91
2022-08-25T01:42:05.405Z,17.80
2022-08-25T01:44:35.908Z,18.01
2022-08-25T01:47:04.772Z,17.89
2022-08-25T01:49:32.567Z,17.91
2022-08-25T01:52:21.361Z,17.99
2022-08-25T01:54:49.154Z,17.95
2022-08-25T01:57:16.586Z,17.96
2022-08-25T01:59:44.855Z,17.99
2022-08-25T02:02:12.293Z,17.87
2022-08-25T02:04:39.621Z,17.89
2022-08-25T02:07:11.575Z,17.79
2022-08-25T02:09:39.302Z,17.63
2022-08-25T02:12:09.188Z,17.68
2022-08-25T02:14:37.216Z,17.68
2022-08-25T02:17:05.764Z,17.59
2022-08-25T02:19:33.014Z,17.51
2022-08-25T02:22:00.998Z,17.50
2022-08-25T02:24:28.484Z,17.57
2022-08-25T02:26:55.604Z,17.54
2022-08-25T02:29:22.792Z,17.60
2022-08-25T02:31:50.214Z,17.65
2022-08-25T02:34:17.545Z,17.70
2022-08-25T02:36:44.618Z,17.71
2022-08-25T02:39:12.513Z,17.61
2022-08-25T02:41:39.697Z,17.69
2022-08-25T02:44:08.332Z,17.70
2022-08-25T02:46:36.902Z,17.60
2022-08-25T02:49:05.331Z,17.55
2022-08-25T02:51:33.597Z,17.39
2022-08-25T02:54:02.634Z,17.36
2022-08-25T02:56:31.577Z,17.20
2022-08-25T02:58:59.969Z,17.17
2022-08-25T03:01:29.184Z,17.21
2022-08-25T03:03:57.396Z,17.33
2022-08-25T03:06:25.093Z,17.33
2022-08-25T03:08:53.625Z,17.31
2022-08-25T03:11:21.593Z,17.35
2022-08-25T03:13:50.951Z,17.39
2022-08-25T03:16:19.030Z,17.38
2022-08-25T03:18:46.790Z,17.46
2022-08-25T03:21:15.763Z,17.62
2022-08-25T03:23:44.575Z,17.63
2022-08-25T03:26:30.573Z,17.68
2022-08-25T03:28:58.185Z,17.62
2022-08-25T03:31:27.671Z,17.53
2022-08-25T03:33:55.904Z,17.37
2022-08-25T03:36:23.857Z,17.39
2022-08-25T03:38:52.255Z,17.18
2022-08-25T03:41:22.738Z,16.96
2022-08-25T03:43:51.113Z,16.62
2022-08-25T03:46:29.858Z,16.21
2022-08-25T03:48:58.041Z,15.91
2022-08-25T03:51:36.062Z,15.74
2022-08-25T03:54:04.949Z,15.58
2022-08-25T03:56:32.017Z,15.41
2022-08-25T03:59:00.582Z,15.25
2022-08-25T04:01:28.390Z,15.19
2022-08-25T04:03:55.886Z,15.16
2022-08-25T04:06:23.527Z,15.16
2022-08-25T04:08:52.618Z,15.11
2022-08-25T04:11:22.853Z,15.05
2022-08-25T04:13:51.925Z,15.05
2022-08-25T04:16:23.110Z,15.14
2022-08-25T04:18:51.621Z,15.11
2022-08-25T04:21:20.326Z,15.15
2022-08-25T04:23:49.033Z,15.15
2022-08-25T04:26:22.886Z,15.41
2022-08-25T04:28:50.645Z,15.29
2022-08-25T04:31:19.438Z,15.31
2022-08-25T04:33:48.052Z,15.48
2022-08-25T04:36:16.686Z,15.76
2022-08-25T04:38:45.256Z,16.01
2022-08-25T04:41:14.901Z,16.19
2022-08-25T04:43:44.000Z,16.27
2022-08-25T04:46:24.459Z,16.33
2022-08-25T04:48:53.911Z,16.45
2022-08-25T04:51:26.072Z,16.60
2022-08-25T04:53:53.576Z,16.37
2022-08-25T04:56:26.190Z,16.45
2022-08-25T04:58:55.393Z,16.22
2022-08-25T05:01:25.531Z,16.04
2022-08-25T05:03:57.220Z,15.79
2022-08-25T05:06:24.512Z,16.08
2022-08-25T05:08:52.065Z,16.26
2022-08-25T05:11:19.656Z,16.43
2022-08-25T05:13:51.233Z,16.83
2022-08-25T05:16:20.692Z,17.51
2022-08-25T05:18:48.103Z,18.69
2022-08-25T05:21:19.576Z,20.01
2022-08-25T05:23:47.573Z,20.46
2022-08-25T05:26:20.776Z,20.88
2022-08-25T05:28:51.279Z,21.26
2022-08-25T05:31:20.012Z,21.62
2022-08-25T05:36:16.237Z,21.69
2022-08-25T05:38:43.557Z,23.02
2022-08-25T05:41:20.710Z,23.57
2022-08-25T05:43:49.804Z,22.73
2022-08-25T05:46:19.921Z,22.28
2022-08-25T05:48:47.835Z,21.93
2022-08-25T05:51:16.058Z,21.68
2022-08-25T05:53:46.280Z,22.18
2022-08-25T05:56:14.581Z,22.53
2022-08-25T05:58:43.088Z,23.36
2022-08-25T06:01:30.521Z,24.38
2022-08-25T06:03:57.567Z,26.52
2022-08-25T06:06:24.875Z,27.90
2022-08-25T06:08:52.316Z,28.65
2022-08-25T06:11:19.623Z,29.32
2022-08-25T06:13:46.633Z,29.54
2022-08-25T06:16:13.726Z,29.44
2022-08-25T06:18:40.786Z,28.96
2022-08-25T06:21:13.393Z,28.10
2022-08-25T06:23:41.553Z,28.70
2022-08-25T06:26:13.179Z,28.24
2022-08-25T06:28:51.646Z,27.88
2022-08-25T06:31:20.465Z,28.05
2022-08-25T06:33:48.010Z,28.25
2022-08-25T06:36:15.689Z,28.92
2022-08-25T06:38:42.853Z,28.75
2022-08-25T06:41:12.840Z,28.93
2022-08-25T06:43:48.091Z,29.00
2022-08-25T06:46:31.707Z,29.30
2022-08-25T06:49:08.125Z,29.41
2022-08-25T06:51:36.179Z,29.69
2022-08-25T06:54:06.288Z,30.06
2022-08-25T06:56:34.250Z,31.29
2022-08-25T06:59:05.434Z,31.14
2022-08-25T07:01:33.257Z,30.97
2022-08-25T07:04:02.945Z,31.18
2022-08-25T07:06:33.081Z,33.00
2022-08-25T07:09:00.363Z,31.64
2022-08-25T07:11:28.271Z,31.78
2022-08-25T07:13:55.293Z,32.97
2022-08-25T07:16:22.466Z,31.91
2022-08-25T07:18:50.755Z,31.46
2022-08-25T07:21:21.814Z,31.27
2022-08-25T07:23:52.388Z,31.80
2022-08-25T07:26:37.317Z,32.08
2022-08-25T07:29:13.336Z,31.41
2022-08-25T07:31:41.366Z,31.49
2022-08-25T07:34:28.340Z,31.36
2022-08-25T07:36:57.458Z,31.20
2022-08-25T07:39:26.789Z,32.64
2022-08-25T07:41:57.294Z,34.03
2022-08-25T07:44:28.089Z,33.47
2022-08-25T07:46:56.032Z,33.28
2022-08-25T07:49:25.352Z,33.58
2022-08-25T07:52:05.203Z,32.70
2022-08-25T07:54:38.081Z,31.67
2022-08-25T07:57:08.405Z,31.82
2022-08-25T07:59:42.735Z,32.89
2022-08-25T08:02:16.020Z,32.96
2022-08-25T08:04:50.594Z,33.37
2022-08-25T08:07:27.670Z,34.23
2022-08-25T08:13:01.638Z,30.07
2022-08-25T08:15:30.189Z,29.00
2022-08-25T08:17:59.312Z,29.06
2022-08-25T08:20:27.288Z,28.64
2022-08-25T08:22:54.606Z,29.63
2022-08-25T08:25:26.656Z,29.78
2022-08-25T08:27:56.224Z,29.23
2022-08-25T08:30:26.333Z,29.36
2022-08-25T08:33:12.048Z,29.23
2022-08-25T08:35:41.229Z,29.42
2022-08-25T08:38:14.943Z,29.01
2022-08-25T08:41:33.892Z,28.77
2022-08-25T08:44:24.941Z,29.11
2022-08-25T08:47:33.422Z,28.75
2022-08-25T08:51:01.097Z,28.54
2022-08-25T08:53:55.305Z,29.25
2022-08-25T08:56:25.905Z,29.90
2022-08-25T08:59:05.137Z,29.93
2022-08-25T09:01:41.639Z,28.84
2022-08-25T09:04:20.063Z,29.37
2022-08-25T09:06:49.900Z,29.35
2022-08-25T09:12:07.085Z,29.92
2022-08-25T09:14:54.013Z,31.29
2022-08-25T09:17:57.912Z,30.62
2022-08-25T09:20:37.068Z,29.79
2022-08-25T09:23:34.867Z,29.74
2022-08-25T09:26:39.024Z,29.98
2022-08-25T09:29:21.727Z,29.76
2022-08-25T09:31:49.325Z,30.78
2022-08-25T09:34:22.830Z,30.15
2022-08-25T09:36:52.932Z,30.12
2022-08-25T09:39:21.178Z,30.56
2022-08-25T09:42:01.543Z,31.07
2022-08-25T09:44:33.380Z,30.48
2022-08-25T09:47:26.051Z,31.28
2022-08-25T09:49:57.345Z,30.90
2022-08-25T09:52:41.125Z,30.80
2022-08-25T09:55:08.386Z,29.71
2022-08-25T09:57:43.143Z,31.69
2022-08-25T10:00:31.177Z,31.29
2022-08-25T10:03:22.704Z,29.86
2022-08-25T10:06:13.675Z,30.09
2022-08-25T10:08:43.454Z,31.58
2022-08-25T10:11:31.325Z,29.60
2022-08-25T10:14:26.255Z,31.92
2022-08-25T10:16:54.494Z,32.05
2022-08-25T10:19:30.782Z,30.87
2022-08-25T10:22:25.851Z,32.20
2022-08-25T10:24:55.525Z,33.19
2022-08-25T10:28:04.308Z,31.89
2022-08-25T10:31:16.202Z,33.06
2022-08-25T10:33:51.261Z,33.24
2022-08-25T10:36:33.154Z,33.35
2022-08-25T10:39:02.187Z,34.05
2022-08-25T10:42:01.038Z,31.95
2022-08-25T10:45:35.680Z,32.92
2022-08-25T10:48:22.322Z,33.54
2022-08-25T10:51:33.146Z,33.68
2022-08-25T10:54:11.989Z,31.70
2022-08-25T10:56:44.625Z,32.27
2022-08-25T11:00:05.819Z,32.77
2022-08-25T11:03:26.817Z,33.12
2022-08-25T11:06:02.014Z,33.12
2022-08-25T11:08:36.064Z,33.86
2022-08-25T11:11:39.372Z,32.06
2022-08-25T11:14:21.409Z,32.37
2022-08-25T11:16:56.009Z,33.38
2022-08-25T11:19:47.223Z,33.54
2022-08-25T11:22:34.188Z,33.99
2022-08-25T11:25:23.990Z,35.69
2022-08-25T11:28:08.200Z,33.00
2022-08-25T11:30:35.251Z,32.94
2022-08-25T11:33:02.383Z,33.50
2022-08-25T11:35:54.791Z,32.94
2022-08-25T11:39:04.705Z,33.77
2022-08-25T11:41:59.060Z,33.49
2022-08-25T11:44:53.135Z,34.41
2022-08-25T11:47:44.630Z,33.77
2022-08-25T11:50:36.497Z,30.76
2022-08-25T11:53:30.241Z,30.39
2022-08-25T11:56:07.003Z,32.25
2022-08-25T11:58:51.853Z,31.90
2022-08-25T12:01:40.490Z,31.50
2022-08-25T12:04:45.007Z,32.35
2022-08-25T12:07:22.130Z,32.32
2022-08-25T12:09:53.744Z,33.35
2022-08-25T12:12:41.821Z,32.97
2022-08-25T12:15:57.238Z,31.61
2022-08-25T12:18:27.351Z,32.11
2022-08-25T12:20:55.059Z,30.85
2022-08-25T12:23:45.207Z,31.24
2022-08-25T12:26:39.139Z,29.89
2022-08-25T12:29:23.394Z,30.12
2022-08-25T12:32:15.399Z,31.58
2022-08-25T12:35:29.844Z,32.16
2022-08-25T12:38:05.926Z,31.74
2022-08-25T12:40:54.470Z,31.83
2022-08-25T12:43:38.081Z,33.11
2022-08-25T12:46:23.243Z,31.92
2022-08-25T12:48:57.452Z,31.68
2022-08-25T12:51:40.377Z,30.66
2022-08-25T12:54:59.651Z,29.90
2022-08-25T12:57:52.323Z,30.16
2022-08-25T13:00:33.433Z,29.22
2022-08-25T13:03:21.717Z,29.33
2022-08-25T13:06:22.425Z,29.86
2022-08-25T13:09:17.114Z,29.39
2022-08-25T13:11:56.561Z,31.10
2022-08-25T13:14:34.865Z,32.88
2022-08-25T13:17:06.403Z,33.60
2022-08-25T13:19:35.000Z,34.29
2022-08-25T13:22:16.784Z,30.97
2022-08-25T13:24:47.430Z,30.36
2022-08-25T13:27:41.377Z,30.53
2022-08-25T13:30:31.353Z,30.26
2022-08-25T13:32:58.842Z,31.05
2022-08-25T13:35:32.925Z,31.09
2022-08-25T13:38:15.429Z,30.16
2022-08-25T13:40:43.217Z,30.59
2022-08-25T13:43:14.359Z,31.00
2022-08-25T13:45:47.642Z,30.61
2022-08-25T13:48:36.101Z,30.39
2022-08-25T13:51:31.346Z,30.14
2022-08-25T13:54:04.579Z,29.90
2022-08-25T13:56:41.571Z,30.02
2022-08-25T13:59:40.261Z,29.63
2022-08-25T14:02:19.655Z,30.05
2022-08-25T14:04:51.534Z,29.82
2022-08-25T14:07:22.779Z,29.67
2022-08-25T14:10:10.275Z,29.62
2022-08-25T14:12:45.474Z,29.89
2022-08-25T14:15:21.854Z,29.45
2022-08-25T14:18:29.492Z,30.45
2022-08-25T14:20:58.215Z,30.32
2022-08-25T14:23:27.645Z,29.88
2022-08-25T14:25:57.806Z,29.58
2022-08-25T14:28:29.286Z,29.40
2022-08-25T14:31:14.387Z,29.02
2022-08-25T14:33:59.109Z,28.94
2022-08-25T14:36:26.780Z,29.05
2022-08-25T14:38:56.879Z,28.83
2022-08-25T14:41:26.566Z,28.78
2022-08-25T14:43:54.264Z,28.59
2022-08-25T14:46:29.353Z,28.73
2022-08-25T14:49:03.367Z,28.74
2022-08-25T14:51:32.597Z,28.70
2022-08-25T14:54:07.321Z,28.89
2022-08-25T14:56:36.120Z,29.15
2022-08-25T14:59:04.875Z,29.45
2022-08-25T15:01:32.027Z,29.70
2022-08-25T15:04:06.219Z,29.94
2022-08-25T15:06:36.236Z,29.85
2022-08-25T15:09:10.919Z,30.22
2022-08-25T15:11:54.692Z,29.85
2022-08-25T15:14:29.143Z,30.05
2022-08-25T15:17:01.605Z,29.74
2022-08-25T15:19:29.551Z,30.07
2022-08-25T15:21:57.853Z,30.17
2022-08-25T15:24:27.176Z,30.18
2022-08-25T15:27:00.826Z,30.02
2022-08-25T15:29:30.878Z,29.96
2022-08-25T15:32:00.282Z,29.55
2022-08-25T15:34:28.897Z,29.59
2022-08-25T15:36:58.371Z,29.57
2022-08-25T15:39:26.665Z,29.60
2022-08-25T15:41:54.106Z,29.75
2022-08-25T15:44:25.050Z,29.75
2022-08-25T15:46:53.489Z,29.69
2022-08-25T15:49:24.184Z,29.74
2022-08-25T15:51:54.431Z,29.76
2022-08-25T15:54:26.745Z,29.22
2022-08-25T15:56:55.297Z,29.19
2022-08-25T15:59:22.629Z,29.21
2022-08-25T16:01:55.548Z,29.05
2022-08-25T16:04:24.973Z,29.14
2022-08-25T16:06:53.019Z,29.23
2022-08-25T16:09:23.001Z,29.38
2022-08-25T16:11:56.678Z,29.37
2022-08-25T16:14:27.667Z,29.19
2022-08-25T16:16:58.568Z,29.01
2022-08-25T16:19:28.833Z,29.11
2022-08-25T16:21:56.177Z,29.16
2022-08-25T16:24:23.229Z,28.96
2022-08-25T16:26:51.815Z,28.74
2022-08-25T16:29:20.114Z,28.56
2022-08-25T16:31:53.190Z,28.49
2022-08-25T16:34:24.777Z,28.41
2022-08-25T16:36:55.955Z,28.35
2022-08-25T16:39:23.874Z,28.21
2022-08-25T16:41:52.444Z,28.12
2022-08-25T16:44:21.417Z,28.09
2022-08-25T16:46:50.130Z,28.07
2022-08-25T16:49:17.988Z,27.98
2022-08-25T16:51:45.164Z,27.92
2022-08-25T16:54:32.959Z,27.90
2022-08-25T16:57:00.676Z,27.93
2022-08-25T16:59:27.791Z,27.90
2022-08-25T17:01:54.922Z,27.81
2022-08-25T17:04:27.630Z,27.78
2022-08-25T17:07:00.315Z,27.83
2022-08-25T17:09:29.767Z,27.87
2022-08-25T17:11:57.252Z,27.91
2022-08-25T17:14:24.830Z,27.90
2022-08-25T17:16:55.034Z,27.90
2022-08-25T17:19:24.864Z,27.90
2022-08-25T17:21:54.804Z,27.90
2022-08-25T17:24:22.385Z,27.93
2022-08-25T17:26:57.072Z,28.02
2022-08-25T17:29:24.874Z,27.96
2022-08-25T17:31:52.214Z,27.86
2022-08-25T17:34:22.992Z,27.85
2022-08-25T17:36:51.318Z,27.87
2022-08-25T17:39:19.829Z,27.79
2022-08-25T17:41:50.568Z,27.77
2022-08-25T17:44:19.456Z,27.67
2022-08-25T17:46:48.044Z,27.57
2022-08-25T17:49:17.091Z,27.54
2022-08-25T17:51:45.189Z,27.42
2022-08-25T17:54:13.157Z,27.31
2022-08-25T17:56:40.880Z,27.19
2022-08-25T17:59:08.839Z,27.15
2022-08-25T18:01:40.804Z,27.05
2022-08-25T18:04:16.924Z,26.97
2022-08-25T18:06:47.554Z,26.90
2022-08-25T18:09:15.965Z,26.79
2022-08-25T18:11:43.287Z,26.63
2022-08-25T18:14:12.143Z,26.55
2022-08-25T18:16:40.801Z,26.41
2022-08-25T18:19:10.797Z,26.33
2022-08-25T18:21:38.798Z,26.25
2022-08-25T18:24:07.334Z,26.18
2022-08-25T18:26:35.758Z,26.02
2022-08-25T18:29:03.862Z,25.90
2022-08-25T18:31:31.637Z,25.71
2022-08-25T18:33:59.801Z,25.60
2022-08-25T18:36:27.291Z,25.48
2022-08-25T18:39:14.147Z,25.41
2022-08-25T18:41:42.745Z,25.43
2022-08-25T18:44:12.628Z,25.29
2022-08-25T18:46:43.474Z,25.09
2022-08-25T18:49:15.579Z,24.89
2022-08-25T18:51:44.868Z,24.72
2022-08-25T18:54:23.297Z,24.60
2022-08-25T18:56:52.805Z,24.48
2022-08-25T18:59:23.780Z,24.33
2022-08-25T19:01:53.745Z,24.29
2022-08-25T19:04:31.278Z,24.21
2022-08-25T19:07:00.491Z,24.14
2022-08-25T19:09:28.259Z,23.87
2022-08-25T19:11:56.025Z,23.87
2022-08-25T19:14:23.723Z,23.82
2022-08-25T19:16:54.635Z,23.59
2022-08-25T19:19:23.437Z,23.62
2022-08-25T19:21:51.588Z,23.67
2022-08-25T19:24:19.365Z,23.57
2022-08-25T19:26:47.321Z,23.32
2022-08-25T19:29:17.780Z,23.14
2022-08-25T19:31:47.622Z,23.18
2022-08-25T19:34:25.292Z,23.06
2022-08-25T19:36:57.712Z,22.89
2022-08-25T19:39:26.038Z,22.95
2022-08-25T19:41:53.726Z,22.64
2022-08-25T19:44:21.336Z,22.73
2022-08-25T19:46:48.824Z,22.69
2022-08-25T19:49:22.460Z,22.44
2022-08-25T19:51:51.895Z,22.19
2022-08-25T19:54:28.854Z,22.08
2022-08-25T19:56:57.734Z,21.96
2022-08-25T19:59:42.258Z,21.84
2022-08-25T20:02:15.507Z,21.97
2022-08-25T20:04:49.513Z,22.09
2022-08-25T20:07:18.962Z,22.07
2022-08-25T20:09:46.475Z,22.20
2022-08-25T20:14:43.322Z,22.05
2022-08-25T20:17:14.575Z,22.03
2022-08-25T20:19:52.277Z,22.02
2022-08-25T20:22:22.535Z,21.99
2022-08-25T20:24:56.090Z,22.03
2022-08-25T20:27:32.966Z,22.00
2022-08-25T20:30:02.653Z,21.97
2022-08-25T20:32:32.322Z,21.97
2022-08-25T20:35:00.548Z,21.83
2022-08-25T20:37:28.037Z,21.79
2022-08-25T20:39:55.708Z,21.75
2022-08-25T20:42:23.190Z,21.57
2022-08-25T20:44:50.679Z,21.52
2022-08-25T20:47:20.999Z,21.17
2022-08-25T20:49:48.872Z,20.95
2022-08-25T20:52:18.556Z,21.06
2022-08-25T20:54:50.339Z,21.04
2022-08-25T20:57:24.485Z,21.11
2022-08-25T20:59:53.904Z,21.17
2022-08-25T21:02:21.974Z,21.09
2022-08-25T21:04:50.477Z,21.00
2022-08-25T21:07:18.775Z,20.62
2022-08-25T21:09:46.666Z,20.63
2022-08-25T21:12:15.221Z,20.40
2022-08-25T21:14:42.556Z,20.24
2022-08-25T21:17:13.680Z,20.35
2022-08-25T21:19:41.832Z,20.29
2022-08-25T21:22:10.663Z,20.30
2022-08-25T21:24:39.069Z,20.33
2022-08-25T21:27:07.143Z,20.56
2022-08-25T21:29:34.793Z,20.52
2022-08-25T21:32:02.827Z,20.53
2022-08-25T21:34:31.448Z,20.45
2022-08-25T21:37:00.079Z,20.48
2022-08-25T21:39:29.716Z,20.48
2022-08-25T21:42:00.604Z,20.49
2022-08-25T21:44:29.828Z,20.46
2022-08-25T21:46:57.678Z,20.51
2022-08-25T21:49:25.650Z,20.47
2022-08-25T21:52:02.407Z,20.41
2022-08-25T21:54:32.073Z,20.42
2022-08-25T21:57:01.942Z,20.14
2022-08-25T21:59:40.253Z,20.14
2022-08-25T22:02:10.002Z,20.08
2022-08-25T22:04:38.852Z,19.97
2022-08-25T22:07:07.058Z,19.95
2022-08-25T22:09:35.501Z,19.92
2022-08-25T22:12:03.961Z,19.91
2022-08-25T22:14:32.383Z,19.77
2022-08-25T22:17:00.169Z,19.63
2022-08-25T22:19:28.023Z,19.64
2022-08-25T22:21:56.334Z,19.65
2022-08-25T22:24:28.464Z,19.59
2022-08-25T22:26:56.387Z,19.55
2022-08-25T22:29:25.744Z,19.51
2022-08-25T22:32:00.634Z,19.48
2022-08-25T22:34:33.155Z,19.36
2022-08-25T22:37:04.936Z,19.11
2022-08-25T22:39:34.186Z,18.93
2022-08-25T22:42:02.907Z,19.07
2022-08-25T22:44:30.375Z,19.19
2022-08-25T22:46:57.819Z,19.12
2022-08-25T22:49:29.048Z,19.18
2022-08-25T22:51:56.398Z,19.13
2022-08-25T22:54:25.595Z,19.11
2022-08-25T22:56:53.585Z,19.03
2022-08-25T22:59:22.206Z,18.97
2022-08-25T23:01:52.581Z,18.86
2022-08-25T23:04:22.258Z,18.89
2022-08-25T23:06:50.351Z,18.93
2022-08-25T23:09:17.998Z,19.04
2022-08-25T23:11:45.654Z,19.01
2022-08-25T23:14:13.313Z,18.93
2022-08-25T23:16:42.198Z,19.02
2022-08-25T23:19:14.335Z,18.86
2022-08-25T23:22:01.875Z,18.70
2022-08-25T23:24:30.836Z,18.88
2022-08-25T23:26:59.273Z,19.06
2022-08-25T23:29:27.711Z,19.11
2022-08-25T23:31:55.962Z,19.09
2022-08-25T23:34:24.474Z,19.09
2022-08-25T23:36:52.114Z,19.10
2022-08-25T23:39:21.684Z,18.90
2022-08-25T23:41:50.101Z,18.85
2022-08-25T23:44:18.571Z,18.66
2022-08-25T23:46:47.589Z,18.64
2022-08-25T23:49:18.352Z,18.68
2022-08-25T23:51:48.638Z,18.65
2022-08-25T23:54:17.772Z,18.60
2022-08-25T23:56:51.585Z,18.46
2022-08-25T23:59:24.200Z,18.43
